Time,TemperatureF,DewpointF,PressureIn,WindDirection,WindDirectionDegrees,WindSpeedMPH,WindSpeedGustMPH,Humidity,HourlyPrecipIn,Conditions,Clouds,dailyrainin,SoftwareType,DateUTC
2013-11-08 00:23:00,41.0,35.0,29.54,NE,42,3.0,12.0,79,0.00,,,0.09,,2013-11-08 05:23:00,
2013-11-08 00:43:00,40.0,34.0,29.55,ENE,63,4.0,11.0,80,0.00,,,0.09,,2013-11-08 05:43:00,
2013-11-08 00:54:00,40.0,34.0,29.55,East,87,6.0,15.0,79,0.00,,,0.09,,2013-11-08 05:54:00,
2013-11-08 01:23:00,39.0,31.0,29.56,ENE,77,6.0,13.0,74,0.00,,,0.09,,2013-11-08 06:23:00,
2013-11-08 01:52:00,39.0,31.0,29.57,East,94,8.0,15.0,73,0.00,,,0.09,,2013-11-08 06:52:00,
2013-11-08 02:22:00,39.0,31.0,29.57,NE,36,8.0,13.0,72,0.00,,,0.09,,2013-11-08 07:22:00,
2013-11-08 02:42:00,39.0,30.0,29.57,NE,53,7.0,14.0,70,0.00,,,0.09,,2013-11-08 07:42:00,
2013-11-08 02:52:00,39.0,30.0,29.57,NE,36,8.0,15.0,69,0.00,,,0.09,,2013-11-08 07:52:00,
2013-11-08 03:22:00,38.0,28.0,29.58,NE,44,6.0,15.0,67,0.00,,,0.09,,2013-11-08 08:22:00,
2013-11-08 03:52:00,38.0,27.0,29.58,NE,37,5.0,16.0,65,0.00,,,0.09,,2013-11-08 08:52:00,
2013-11-08 04:22:00,37.0,26.0,29.59,NE,51,5.0,14.0,65,0.00,,,0.09,,2013-11-08 09:22:00,
2013-11-08 04:43:00,37.0,26.0,29.59,NNE,18,5.0,11.0,65,0.00,,,0.09,,2013-11-08 09:43:00,
2013-11-08 04:53:00,37.0,26.0,29.59,North,1,4.0,12.0,64,0.00,,,0.09,,2013-11-08 09:53:00,
2013-11-08 05:23:00,38.0,27.0,29.59,NE,50,3.0,10.0,64,0.00,,,0.09,,2013-11-08 10:23:00,
2013-11-08 05:43:00,37.0,27.0,29.59,North,10,2.0,8.0,66,0.00,,,0.09,,2013-11-08 10:43:00,
2013-11-08 05:53:00,37.0,27.0,29.59,NNE,30,4.0,11.0,66,0.00,,,0.09,,2013-11-08 10:53:00,
2013-11-08 06:22:00,37.0,27.0,29.59,NNE,32,6.0,11.0,67,0.00,,,0.09,,2013-11-08 11:22:00,
2013-11-08 06:52:00,38.0,28.0,29.60,North,1,6.0,15.0,67,0.00,,,0.09,,2013-11-08 11:52:00,
2013-11-08 07:21:00,38.0,28.0,29.60,North,1,4.0,10.0,66,0.00,,,0.09,,2013-11-08 12:21:00,
2013-11-08 07:42:00,38.0,28.0,29.61,North,1,5.0,11.0,66,0.00,,,0.09,,2013-11-08 12:42:00,
2013-11-08 07:52:00,38.0,27.0,29.61,NNE,25,10.0,16.0,65,0.00,,,0.09,,2013-11-08 12:52:00,
2013-11-08 08:22:00,39.0,29.0,29.62,NNE,19,6.0,11.0,67,0.00,,,0.09,,2013-11-08 13:22:00,
2013-11-08 08:52:00,39.0,27.0,29.62,North,359,8.0,14.0,63,0.00,,,0.09,,2013-11-08 13:52:00,
2013-11-08 09:22:00,39.0,29.0,29.63,North,359,5.0,14.0,68,0.00,,,0.09,,2013-11-08 14:22:00,
2013-11-08 09:42:00,39.0,29.0,29.63,North,359,8.0,16.0,67,0.00,,,0.09,,2013-11-08 14:42:00,
2013-11-08 09:52:00,39.0,29.0,29.63,North,360,8.0,15.0,67,0.00,,,0.09,,2013-11-08 14:52:00,
2013-11-08 10:22:00,39.0,29.0,29.62,NNE,19,7.0,19.0,66,0.00,,,0.09,,2013-11-08 15:22:00,
2013-11-08 10:53:00,40.0,30.0,29.62,North,1,6.0,17.0,66,0.00,,,0.09,,2013-11-08 15:53:00,
2013-11-08 11:03:00,40.0,30.0,29.62,North,1,6.0,17.0,66,0.00,,,0.09,,2013-11-08 16:03:00,
2013-11-08 11:23:00,41.0,28.0,29.61,NE,44,10.0,19.0,60,0.00,,,0.09,,2013-11-08 16:23:00,
2013-11-08 11:53:00,41.0,28.0,29.60,NNE,21,7.0,15.0,59,0.00,,,0.09,,2013-11-08 16:53:00,
2013-11-08 12:02:00,41.0,28.0,29.60,NNE,21,7.0,15.0,59,0.00,,,0.09,,2013-11-08 17:02:00,
2013-11-08 12:22:00,43.0,30.0,29.59,NE,34,5.0,13.0,59,0.00,,,0.09,,2013-11-08 17:22:00,
2013-11-08 12:53:00,42.0,28.0,29.58,NNE,20,9.0,19.0,57,0.00,,,0.09,,2013-11-08 17:53:00,
2013-11-08 13:22:00,42.0,28.0,29.58,North,359,8.0,17.0,58,0.00,,,0.09,,2013-11-08 18:22:00,
2013-11-08 13:53:00,42.0,27.0,29.58,NNE,23,8.0,13.0,55,0.00,,,0.09,,2013-11-08 18:53:00,
2013-11-08 14:22:00,44.0,28.0,29.58,NNE,25,10.0,16.0,52,0.00,,,0.09,,2013-11-08 19:22:00,
2013-11-08 14:42:00,43.0,26.0,29.58,North,360,10.0,19.0,51,0.00,,,0.09,,2013-11-08 19:42:00,
2013-11-08 14:53:00,43.0,27.0,29.59,NNE,30,5.0,16.0,52,0.00,,,0.08,,2013-11-08 19:53:00,
2013-11-08 15:12:00,44.0,28.0,29.59,NE,41,7.0,14.0,52,0.00,,,0.08,,2013-11-08 20:12:00,
2013-11-08 15:22:00,44.0,28.0,29.59,NE,41,7.0,14.0,52,0.00,,,0.08,,2013-11-08 20:22:00,
2013-11-08 15:53:00,42.0,27.0,29.61,North,351,9.0,22.0,54,0.00,,,0.04,,2013-11-08 20:53:00,
2013-11-08 16:22:00,41.0,27.0,29.62,North,11,9.0,19.0,56,0.00,,,0.04,,2013-11-08 21:22:00,
2013-11-08 16:54:00,40.0,26.0,29.63,North,4,10.0,22.0,57,0.00,,,0.01,,2013-11-08 21:54:00,
2013-11-08 17:24:00,40.0,27.0,29.64,NNE,27,6.0,17.0,60,0.00,,,0.01,,2013-11-08 22:24:00,
2013-11-08 17:43:00,39.0,27.0,29.65,NNE,26,11.0,18.0,61,0.00,,,0.01,,2013-11-08 22:43:00,
2013-11-08 17:53:00,39.0,27.0,29.66,East,86,11.0,21.0,63,0.00,,,0.01,,2013-11-08 22:53:00,
2013-11-08 18:03:00,39.0,27.0,29.66,East,86,11.0,21.0,63,0.00,,,0.01,,2013-11-08 23:03:00,
2013-11-08 18:22:00,39.0,27.0,29.67,NNE,13,11.0,27.0,61,0.00,,,0.01,,2013-11-08 23:22:00,
2013-11-08 18:53:00,38.0,27.0,29.68,East,82,10.0,18.0,64,0.00,,,0.01,,2013-11-08 23:53:00,
2013-11-08 19:22:00,38.0,27.0,29.69,NNE,25,6.0,15.0,63,0.00,,,0.01,,2013-11-09 00:22:00,
2013-11-08 19:52:00,38.0,27.0,29.69,NNE,20,7.0,19.0,64,0.00,,,0.00,,2013-11-09 00:52:00,
2013-11-08 20:22:00,38.0,27.0,29.70,NNE,19,10.0,21.0,64,0.00,,,0.00,,2013-11-09 01:22:00,
2013-11-08 20:52:00,38.0,27.0,29.71,NNE,21,10.0,20.0,64,0.00,,,0.00,,2013-11-09 01:52:00,
2013-11-08 21:22:00,38.0,28.0,29.71,NE,35,7.0,18.0,66,0.00,,,0.00,,2013-11-09 02:22:00,
2013-11-08 21:52:00,37.0,27.0,29.72,North,10,9.0,16.0,68,0.00,,,0.00,,2013-11-09 02:52:00,
2013-11-08 22:22:00,37.0,27.0,29.72,NNE,15,7.0,22.0,68,0.00,,,0.00,,2013-11-09 03:22:00,
2013-11-08 22:54:00,37.0,27.0,29.72,NNE,32,9.0,16.0,68,0.00,,,0.00,,2013-11-09 03:54:00,
2013-11-08 23:23:00,37.0,28.0,29.72,NNE,12,7.0,18.0,70,0.00,,,0.00,,2013-11-09 04:23:00,
2013-11-08 23:42:00,37.0,28.0,29.73,North,1,9.0,17.0,70,0.00,,,0.00,,2013-11-09 04:42:00,
2013-11-08 23:53:00,37.0,28.0,29.73,North,4,10.0,17.0,70,0.00,,,0.00,,2013-11-09 04:53:00,